This is the latest recevied weather packets stored in our database for station/object KG4AGD. If no packets are shown the sender has not sent any weather packets the latest 10 day(s).
| Time | Temp. | Humidity | Pressure | Rain* | Wind** | Luminosity | Snow |
|---|---|---|---|---|---|---|---|
| 1777953994 | 17.22° C | 71% | 1017.6 hPa | 0 mm | - | - | - |
| 1777953389 | 17.22° C | 70% | 1017.6 hPa | 0 mm | - | - | - |
| 1777943714 | 20° C | 64% | 1016.5 hPa | 0 mm | - | - | - |
| 1777943411 | 20° C | 64% | 1016.5 hPa | 0 mm | - | - | - |
| 1777943108 | 20° C | 64% | 1016.5 hPa | 0 mm | - | - | - |
| 1777941592 | 21.11° C | 61% | 1015.9 hPa | 0 mm | - | - | - |
| 1777941290 | 21.11° C | 61% | 1015.9 hPa | 0 mm | - | - | - |
| 1777940080 | 21.67° C | 49% | 1015.9 hPa | 0 mm | - | - | - |
| 1777939778 | 22.22° C | 48% | 1015.5 hPa | 0 mm | - | - | - |
| 1777938871 | 22.78° C | 46% | 1015.5 hPa | 0 mm | - | - | - |
| 1777938569 | 22.78° C | 46% | 1015.5 hPa | 0 mm | - | - | - |
| 1777934334 | 25° C | 39% | 1014.9 hPa | 0 mm | - | - | - |
| 1777933124 | 25.56° C | 39% | 1014.9 hPa | 0 mm | - | - | - |
| 1777932821 | 25.56° C | 40% | 1014.9 hPa | 0 mm | - | - | - |
| 1777932518 | 25.56° C | 38% | 1014.9 hPa | 0 mm | - | - | - |
| 1777932216 | 25.56° C | 39% | 1014.9 hPa | 0 mm | - | - | - |
| 1777931915 | 26.11° C | 40% | 1014.9 hPa | 0 mm | - | - | - |
| 1777931611 | 25.56° C | 38% | 1014.9 hPa | 0 mm | - | - | - |
| 1777931309 | 26.11° C | 38% | 1014.9 hPa | 0 mm | - | - | - |
| 1777931007 | 26.11° C | 38% | 1015.2 hPa | 0 mm | - | - | - |
| 1777930705 | 26.11° C | 37% | 1014.9 hPa | 0 mm | - | - | - |
| 1777930100 | 26.11° C | 37% | 1014.9 hPa | 0 mm | - | - | - |
| 1777929798 | 26.11° C | 36% | 1015.2 hPa | 0 mm | - | - | - |
| 1777929495 | 26.11° C | 38% | 1014.9 hPa | 0 mm | - | - | - |
| 1777929193 | 26.11° C | 37% | 1015.2 hPa | 0 mm | - | - | - |
* Rain since midnight (hover to see other rain measurements)
** Current wind speed in m/s (hover to see current wind gust speed)